Chiriaco Summit, California
Current Conditions -  °F | °C
As of 4:52 AM on Thursday 23 Oct 2014 (Local Time) from KTRM Reporting Station
Clear Clear  
Wind Chill: 57°   Ceiling: Unl
Heat Index: 57°   Visibility: 10mi
Dew Point: 43°   Wind: 0mph
Humidity: 59%   Direction: NA
Pressure: 29.88"   Gusts: NA
Location:  33.7269°N, 116.236°W
Report Text: KTRM 231152Z AUTO 00000KT 10SM CLR 14/06 A2988 RMK AO2 SLP121 T01390061 10206 20139 55002 TSNO
Loading
Personal Weather Stations






























Interactive Weather Map
Tropical Storm Tracking
New forecast layout! Learn more

10-Day Weather Forecast

Advertisements
Track Severe Weather on mobile